sensor_id;sensor_type;location;lat;lon;timestamp;temperature;humidity
75262;DHT22;63859;51.064;4.580;2023-07-29T00:01:43;19.50;99.90
75262;DHT22;63859;51.064;4.580;2023-07-29T00:04:09;19.50;99.90
75262;DHT22;63859;51.064;4.580;2023-07-29T00:06:35;19.40;99.90
75262;DHT22;63859;51.064;4.580;2023-07-29T00:09:02;19.40;99.90
75262;DHT22;63859;51.064;4.580;2023-07-29T00:11:28;19.30;99.90
75262;DHT22;63859;51.064;4.580;2023-07-29T00:13:53;19.40;99.90
75262;DHT22;63859;51.064;4.580;2023-07-29T00:16:20;19.30;99.90
75262;DHT22;63859;51.064;4.580;2023-07-29T00:18:48;19.30;99.90
75262;DHT22;63859;51.064;4.580;2023-07-29T00:21:13;19.20;99.90
75262;DHT22;63859;51.064;4.580;2023-07-29T00:23:39;19.20;99.90
75262;DHT22;63859;51.064;4.580;2023-07-29T00:26:04;19.20;99.90
75262;DHT22;63859;51.064;4.580;2023-07-29T00:28:30;19.10;99.90
75262;DHT22;63859;51.064;4.580;2023-07-29T00:30:56;19.10;99.90
75262;DHT22;63859;51.064;4.580;2023-07-29T00:33:22;19.10;99.90
75262;DHT22;63859;51.064;4.580;2023-07-29T00:35:47;19.00;99.90
75262;DHT22;63859;51.064;4.580;2023-07-29T00:38:13;19.00;99.90
75262;DHT22;63859;51.064;4.580;2023-07-29T00:40:39;18.90;99.90
75262;DHT22;63859;51.064;4.580;2023-07-29T00:43:05;18.90;99.90
75262;DHT22;63859;51.064;4.580;2023-07-29T00:45:32;18.90;99.90
75262;DHT22;63859;51.064;4.580;2023-07-29T00:47:58;18.80;99.90
75262;DHT22;63859;51.064;4.580;2023-07-29T00:50:25;18.80;99.90
75262;DHT22;63859;51.064;4.580;2023-07-29T00:52:53;18.80;99.90
75262;DHT22;63859;51.064;4.580;2023-07-29T00:55:19;18.70;99.90
75262;DHT22;63859;51.064;4.580;2023-07-29T00:57:45;18.70;99.90
75262;DHT22;63859;51.064;4.580;2023-07-29T01:00:15;18.70;99.90
75262;DHT22;63859;51.064;4.580;2023-07-29T01:02:42;18.60;99.90
75262;DHT22;63859;51.064;4.580;2023-07-29T01:05:09;18.60;99.90
75262;DHT22;63859;51.064;4.580;2023-07-29T01:07:58;18.60;99.90
75262;DHT22;63859;51.064;4.580;2023-07-29T01:13:22;18.50;99.90
75262;DHT22;63859;51.064;4.580;2023-07-29T01:15:58;18.40;99.90
75262;DHT22;63859;51.064;4.580;2023-07-29T01:18:30;18.40;99.90
75262;DHT22;63859;51.064;4.580;2023-07-29T01:21:02;18.40;99.90
75262;DHT22;63859;51.064;4.580;2023-07-29T01:23:33;18.30;99.90
75262;DHT22;63859;51.064;4.580;2023-07-29T01:25:59;18.30;99.90
75262;DHT22;63859;51.064;4.580;2023-07-29T01:28:25;18.30;99.90
75262;DHT22;63859;51.064;4.580;2023-07-29T01:31:16;18.30;99.90
75262;DHT22;63859;51.064;4.580;2023-07-29T01:33:45;18.30;99.90
75262;DHT22;63859;51.064;4.580;2023-07-29T01:36:21;18.30;99.90
75262;DHT22;63859;51.064;4.580;2023-07-29T01:38:48;18.30;99.90
75262;DHT22;63859;51.064;4.580;2023-07-29T01:41:16;18.30;99.90
75262;DHT22;63859;51.064;4.580;2023-07-29T01:43:42;18.20;99.90
75262;DHT22;63859;51.064;4.580;2023-07-29T01:46:12;18.20;99.90
75262;DHT22;63859;51.064;4.580;2023-07-29T01:48:38;18.20;99.90
75262;DHT22;63859;51.064;4.580;2023-07-29T01:51:04;18.20;99.90
75262;DHT22;63859;51.064;4.580;2023-07-29T01:53:30;18.10;99.90
75262;DHT22;63859;51.064;4.580;2023-07-29T01:55:56;18.20;99.90
75262;DHT22;63859;51.064;4.580;2023-07-29T01:58:23;18.20;99.90
75262;DHT22;63859;51.064;4.580;2023-07-29T02:00:48;18.10;99.90
75262;DHT22;63859;51.064;4.580;2023-07-29T02:03:14;18.10;99.90
75262;DHT22;63859;51.064;4.580;2023-07-29T02:05:40;18.10;99.90
75262;DHT22;63859;51.064;4.580;2023-07-29T02:08:07;18.10;99.90
75262;DHT22;63859;51.064;4.580;2023-07-29T02:10:32;18.10;99.90
75262;DHT22;63859;51.064;4.580;2023-07-29T02:12:58;18.10;99.90
75262;DHT22;63859;51.064;4.580;2023-07-29T02:15:24;18.00;99.90
75262;DHT22;63859;51.064;4.580;2023-07-29T02:17:50;18.00;99.90
75262;DHT22;63859;51.064;4.580;2023-07-29T02:20:17;18.00;99.90
75262;DHT22;63859;51.064;4.580;2023-07-29T02:22:42;18.00;99.90
75262;DHT22;63859;51.064;4.580;2023-07-29T02:25:08;18.00;99.90
75262;DHT22;63859;51.064;4.580;2023-07-29T02:27:35;18.00;99.90
75262;DHT22;63859;51.064;4.580;2023-07-29T02:30:01;18.00;99.90
75262;DHT22;63859;51.064;4.580;2023-07-29T02:32:27;18.00;99.90
75262;DHT22;63859;51.064;4.580;2023-07-29T02:34:53;18.00;99.90
75262;DHT22;63859;51.064;4.580;2023-07-29T02:37:18;18.00;99.90
75262;DHT22;63859;51.064;4.580;2023-07-29T02:39:44;18.00;99.90
75262;DHT22;63859;51.064;4.580;2023-07-29T02:42:10;18.00;99.90
75262;DHT22;63859;51.064;4.580;2023-07-29T02:44:36;18.00;99.90
75262;DHT22;63859;51.064;4.580;2023-07-29T02:47:02;17.90;99.90
75262;DHT22;63859;51.064;4.580;2023-07-29T02:49:27;17.90;99.90
75262;DHT22;63859;51.064;4.580;2023-07-29T02:51:53;17.80;99.90
75262;DHT22;63859;51.064;4.580;2023-07-29T02:54:18;17.80;99.90
75262;DHT22;63859;51.064;4.580;2023-07-29T02:56:44;17.80;99.90
75262;DHT22;63859;51.064;4.580;2023-07-29T02:59:10;17.80;99.90
75262;DHT22;63859;51.064;4.580;2023-07-29T03:01:35;17.80;99.90
75262;DHT22;63859;51.064;4.580;2023-07-29T03:04:01;17.70;99.90
75262;DHT22;63859;51.064;4.580;2023-07-29T03:06:27;17.70;99.90
75262;DHT22;63859;51.064;4.580;2023-07-29T03:08:52;17.70;99.90
75262;DHT22;63859;51.064;4.580;2023-07-29T03:11:18;17.70;99.90
75262;DHT22;63859;51.064;4.580;2023-07-29T03:13:44;17.70;99.90
75262;DHT22;63859;51.064;4.580;2023-07-29T03:16:17;17.70;99.90
75262;DHT22;63859;51.064;4.580;2023-07-29T03:18:44;17.70;99.90
75262;DHT22;63859;51.064;4.580;2023-07-29T03:21:10;17.70;99.90
75262;DHT22;63859;51.064;4.580;2023-07-29T03:23:37;17.70;99.90
75262;DHT22;63859;51.064;4.580;2023-07-29T03:26:03;17.70;99.90
75262;DHT22;63859;51.064;4.580;2023-07-29T03:28:40;17.70;99.90
75262;DHT22;63859;51.064;4.580;2023-07-29T03:31:06;17.70;99.90
75262;DHT22;63859;51.064;4.580;2023-07-29T03:33:31;17.70;99.90
75262;DHT22;63859;51.064;4.580;2023-07-29T03:35:57;17.70;99.90
75262;DHT22;63859;51.064;4.580;2023-07-29T03:38:23;17.70;99.90
75262;DHT22;63859;51.064;4.580;2023-07-29T03:40:50;17.70;99.90
75262;DHT22;63859;51.064;4.580;2023-07-29T03:43:15;17.70;99.90
75262;DHT22;63859;51.064;4.580;2023-07-29T03:45:41;17.70;99.90
75262;DHT22;63859;51.064;4.580;2023-07-29T03:48:07;17.60;99.90
75262;DHT22;63859;51.064;4.580;2023-07-29T03:50:36;17.60;99.90
75262;DHT22;63859;51.064;4.580;2023-07-29T03:53:03;17.60;99.90
75262;DHT22;63859;51.064;4.580;2023-07-29T03:55:29;17.60;99.90
75262;DHT22;63859;51.064;4.580;2023-07-29T03:57:59;17.60;99.90
75262;DHT22;63859;51.064;4.580;2023-07-29T04:00:25;17.50;99.90
75262;DHT22;63859;51.064;4.580;2023-07-29T04:02:51;17.50;99.90
75262;DHT22;63859;51.064;4.580;2023-07-29T04:05:16;17.50;99.90
75262;DHT22;63859;51.064;4.580;2023-07-29T04:07:42;17.50;99.90
75262;DHT22;63859;51.064;4.580;2023-07-29T04:10:08;17.50;99.90
75262;DHT22;63859;51.064;4.580;2023-07-29T04:12:34;17.50;99.90
75262;DHT22;63859;51.064;4.580;2023-07-29T04:15:00;17.50;99.90
75262;DHT22;63859;51.064;4.580;2023-07-29T04:17:25;17.50;99.90
75262;DHT22;63859;51.064;4.580;2023-07-29T04:19:51;17.40;99.90
75262;DHT22;63859;51.064;4.580;2023-07-29T04:22:17;17.40;99.90
75262;DHT22;63859;51.064;4.580;2023-07-29T04:24:42;17.40;99.90
75262;DHT22;63859;51.064;4.580;2023-07-29T04:27:08;17.40;99.90
75262;DHT22;63859;51.064;4.580;2023-07-29T04:29:34;17.40;99.90
75262;DHT22;63859;51.064;4.580;2023-07-29T04:32:04;17.40;99.90
75262;DHT22;63859;51.064;4.580;2023-07-29T04:34:30;17.40;99.90
75262;DHT22;63859;51.064;4.580;2023-07-29T04:36:56;17.40;99.90
75262;DHT22;63859;51.064;4.580;2023-07-29T04:39:21;17.40;99.90
75262;DHT22;63859;51.064;4.580;2023-07-29T04:41:47;17.40;99.90
75262;DHT22;63859;51.064;4.580;2023-07-29T04:44:13;17.40;99.90
75262;DHT22;63859;51.064;4.580;2023-07-29T04:46:38;17.50;99.90
75262;DHT22;63859;51.064;4.580;2023-07-29T04:49:04;17.50;99.90
75262;DHT22;63859;51.064;4.580;2023-07-29T04:51:30;17.50;99.90
75262;DHT22;63859;51.064;4.580;2023-07-29T04:53:57;17.50;99.90
75262;DHT22;63859;51.064;4.580;2023-07-29T04:56:23;17.50;99.90
75262;DHT22;63859;51.064;4.580;2023-07-29T04:58:49;17.50;99.90
75262;DHT22;63859;51.064;4.580;2023-07-29T05:01:14;17.50;99.90
75262;DHT22;63859;51.064;4.580;2023-07-29T05:03:40;17.50;99.90
75262;DHT22;63859;51.064;4.580;2023-07-29T05:06:06;17.50;99.90
75262;DHT22;63859;51.064;4.580;2023-07-29T05:08:31;17.50;99.90
75262;DHT22;63859;51.064;4.580;2023-07-29T05:10:57;17.50;99.90
75262;DHT22;63859;51.064;4.580;2023-07-29T05:13:23;17.50;99.90
75262;DHT22;63859;51.064;4.580;2023-07-29T05:15:49;17.50;99.90
75262;DHT22;63859;51.064;4.580;2023-07-29T05:18:16;17.50;99.90
75262;DHT22;63859;51.064;4.580;2023-07-29T05:20:42;17.50;99.90
75262;DHT22;63859;51.064;4.580;2023-07-29T05:23:07;17.50;99.90
75262;DHT22;63859;51.064;4.580;2023-07-29T05:25:33;17.50;99.90
75262;DHT22;63859;51.064;4.580;2023-07-29T05:28:02;17.60;99.90
75262;DHT22;63859;51.064;4.580;2023-07-29T05:30:28;17.60;99.90
75262;DHT22;63859;51.064;4.580;2023-07-29T05:33:00;17.60;99.90
75262;DHT22;63859;51.064;4.580;2023-07-29T05:35:25;17.70;99.90
75262;DHT22;63859;51.064;4.580;2023-07-29T05:37:51;17.70;99.90
75262;DHT22;63859;51.064;4.580;2023-07-29T05:40:17;17.70;99.90
75262;DHT22;63859;51.064;4.580;2023-07-29T05:42:42;17.70;99.90
75262;DHT22;63859;51.064;4.580;2023-07-29T05:45:09;17.70;99.90
75262;DHT22;63859;51.064;4.580;2023-07-29T05:47:36;17.80;99.90
75262;DHT22;63859;51.064;4.580;2023-07-29T05:50:02;17.80;99.90
75262;DHT22;63859;51.064;4.580;2023-07-29T05:52:30;17.80;99.90
75262;DHT22;63859;51.064;4.580;2023-07-29T05:54:55;17.80;99.90
75262;DHT22;63859;51.064;4.580;2023-07-29T05:57:21;17.90;99.90
75262;DHT22;63859;51.064;4.580;2023-07-29T05:59:47;17.90;99.90
75262;DHT22;63859;51.064;4.580;2023-07-29T06:02:12;18.00;99.90
75262;DHT22;63859;51.064;4.580;2023-07-29T06:04:38;18.00;99.90
75262;DHT22;63859;51.064;4.580;2023-07-29T06:07:04;18.10;99.90
75262;DHT22;63859;51.064;4.580;2023-07-29T06:09:30;18.10;99.90
75262;DHT22;63859;51.064;4.580;2023-07-29T06:11:55;18.10;99.90
75262;DHT22;63859;51.064;4.580;2023-07-29T06:14:21;18.20;99.90
75262;DHT22;63859;51.064;4.580;2023-07-29T06:16:47;18.20;99.90
75262;DHT22;63859;51.064;4.580;2023-07-29T06:19:12;18.20;99.90
75262;DHT22;63859;51.064;4.580;2023-07-29T06:21:38;18.20;99.90
75262;DHT22;63859;51.064;4.580;2023-07-29T06:24:04;18.20;99.90
75262;DHT22;63859;51.064;4.580;2023-07-29T06:26:30;18.30;99.90
75262;DHT22;63859;51.064;4.580;2023-07-29T06:28:55;18.30;99.90
75262;DHT22;63859;51.064;4.580;2023-07-29T06:31:21;18.30;99.90
75262;DHT22;63859;51.064;4.580;2023-07-29T06:33:47;18.40;99.90
75262;DHT22;63859;51.064;4.580;2023-07-29T06:36:13;18.50;99.90
75262;DHT22;63859;51.064;4.580;2023-07-29T06:38:39;18.50;99.90
75262;DHT22;63859;51.064;4.580;2023-07-29T06:41:04;18.70;99.90
75262;DHT22;63859;51.064;4.580;2023-07-29T06:43:30;18.80;99.90
75262;DHT22;63859;51.064;4.580;2023-07-29T06:45:56;18.80;99.90
75262;DHT22;63859;51.064;4.580;2023-07-29T06:48:22;18.90;99.90
75262;DHT22;63859;51.064;4.580;2023-07-29T06:50:48;19.00;99.90
75262;DHT22;63859;51.064;4.580;2023-07-29T06:53:15;19.00;99.90
75262;DHT22;63859;51.064;4.580;2023-07-29T06:55:41;19.00;99.90
75262;DHT22;63859;51.064;4.580;2023-07-29T06:58:07;19.10;99.90
75262;DHT22;63859;51.064;4.580;2023-07-29T07:00:32;19.10;99.90
75262;DHT22;63859;51.064;4.580;2023-07-29T07:02:58;19.20;99.90
75262;DHT22;63859;51.064;4.580;2023-07-29T07:05:24;19.30;99.90
75262;DHT22;63859;51.064;4.580;2023-07-29T07:07:50;19.40;99.90
75262;DHT22;63859;51.064;4.580;2023-07-29T07:10:15;19.60;99.90
75262;DHT22;63859;51.064;4.580;2023-07-29T07:12:41;19.70;99.90
75262;DHT22;63859;51.064;4.580;2023-07-29T07:15:07;19.80;99.90
75262;DHT22;63859;51.064;4.580;2023-07-29T07:17:33;19.80;99.90
75262;DHT22;63859;51.064;4.580;2023-07-29T07:19:58;19.90;99.90
75262;DHT22;63859;51.064;4.580;2023-07-29T07:22:24;19.80;99.90
75262;DHT22;63859;51.064;4.580;2023-07-29T07:24:50;19.80;99.90
75262;DHT22;63859;51.064;4.580;2023-07-29T07:27:15;19.90;99.90
75262;DHT22;63859;51.064;4.580;2023-07-29T07:29:41;19.90;99.90
75262;DHT22;63859;51.064;4.580;2023-07-29T07:32:07;19.80;99.90
75262;DHT22;63859;51.064;4.580;2023-07-29T07:34:33;19.80;99.90
75262;DHT22;63859;51.064;4.580;2023-07-29T07:37:00;19.80;99.90
75262;DHT22;63859;51.064;4.580;2023-07-29T07:39:26;19.80;99.90
75262;DHT22;63859;51.064;4.580;2023-07-29T07:41:51;19.80;99.90
75262;DHT22;63859;51.064;4.580;2023-07-29T07:44:17;19.80;99.90
75262;DHT22;63859;51.064;4.580;2023-07-29T07:46:45;19.80;99.90
75262;DHT22;63859;51.064;4.580;2023-07-29T07:49:10;19.80;99.90
75262;DHT22;63859;51.064;4.580;2023-07-29T07:51:36;19.80;99.90
75262;DHT22;63859;51.064;4.580;2023-07-29T07:54:02;19.90;99.90
75262;DHT22;63859;51.064;4.580;2023-07-29T07:56:27;19.90;99.90
75262;DHT22;63859;51.064;4.580;2023-07-29T07:58:53;20.00;99.90
75262;DHT22;63859;51.064;4.580;2023-07-29T08:01:19;20.00;99.90
75262;DHT22;63859;51.064;4.580;2023-07-29T08:03:45;20.10;99.90
75262;DHT22;63859;51.064;4.580;2023-07-29T08:06:10;20.30;99.90
75262;DHT22;63859;51.064;4.580;2023-07-29T08:08:36;20.30;99.90
75262;DHT22;63859;51.064;4.580;2023-07-29T08:11:01;20.40;99.90
75262;DHT22;63859;51.064;4.580;2023-07-29T08:13:27;20.30;99.90
75262;DHT22;63859;51.064;4.580;2023-07-29T08:15:53;20.40;99.90
75262;DHT22;63859;51.064;4.580;2023-07-29T08:18:19;20.40;99.90
75262;DHT22;63859;51.064;4.580;2023-07-29T08:20:55;20.40;99.90
75262;DHT22;63859;51.064;4.580;2023-07-29T08:23:27;20.40;99.90
75262;DHT22;63859;51.064;4.580;2023-07-29T08:25:57;20.50;99.90
75262;DHT22;63859;51.064;4.580;2023-07-29T08:28:37;20.70;99.90
75262;DHT22;63859;51.064;4.580;2023-07-29T08:31:03;20.90;99.90
75262;DHT22;63859;51.064;4.580;2023-07-29T08:33:29;20.90;99.90
75262;DHT22;63859;51.064;4.580;2023-07-29T08:35:55;21.00;99.90
75262;DHT22;63859;51.064;4.580;2023-07-29T08:38:21;21.10;99.90
75262;DHT22;63859;51.064;4.580;2023-07-29T08:40:54;21.20;99.90
75262;DHT22;63859;51.064;4.580;2023-07-29T08:43:29;21.40;99.90
75262;DHT22;63859;51.064;4.580;2023-07-29T08:45:57;21.40;99.90
75262;DHT22;63859;51.064;4.580;2023-07-29T08:48:36;21.50;99.90
75262;DHT22;63859;51.064;4.580;2023-07-29T08:51:03;21.40;99.90
75262;DHT22;63859;51.064;4.580;2023-07-29T08:53:31;21.40;99.90
75262;DHT22;63859;51.064;4.580;2023-07-29T08:55:57;21.50;99.90
75262;DHT22;63859;51.064;4.580;2023-07-29T08:58:26;21.70;99.90
75262;DHT22;63859;51.064;4.580;2023-07-29T09:00:52;21.90;99.90
75262;DHT22;63859;51.064;4.580;2023-07-29T09:03:19;22.00;99.90
75262;DHT22;63859;51.064;4.580;2023-07-29T09:05:45;22.00;99.90
75262;DHT22;63859;51.064;4.580;2023-07-29T09:08:12;22.30;99.90
75262;DHT22;63859;51.064;4.580;2023-07-29T09:10:37;22.40;99.90
75262;DHT22;63859;51.064;4.580;2023-07-29T09:13:04;22.50;99.90
75262;DHT22;63859;51.064;4.580;2023-07-29T09:15:34;22.50;99.90
75262;DHT22;63859;51.064;4.580;2023-07-29T09:18:11;22.60;99.90
75262;DHT22;63859;51.064;4.580;2023-07-29T09:20:37;22.50;99.90
75262;DHT22;63859;51.064;4.580;2023-07-29T09:23:02;22.50;99.90
75262;DHT22;63859;51.064;4.580;2023-07-29T09:25:29;22.50;99.90
75262;DHT22;63859;51.064;4.580;2023-07-29T09:28:01;22.50;99.90
75262;DHT22;63859;51.064;4.580;2023-07-29T09:30:27;22.50;99.90
75262;DHT22;63859;51.064;4.580;2023-07-29T09:32:57;22.40;99.90
75262;DHT22;63859;51.064;4.580;2023-07-29T09:35:23;22.30;99.90
75262;DHT22;63859;51.064;4.580;2023-07-29T09:37:50;22.10;99.90
75262;DHT22;63859;51.064;4.580;2023-07-29T09:40:17;22.10;99.90
75262;DHT22;63859;51.064;4.580;2023-07-29T09:42:51;22.10;99.90
75262;DHT22;63859;51.064;4.580;2023-07-29T09:45:27;22.20;99.90
75262;DHT22;63859;51.064;4.580;2023-07-29T09:47:53;22.20;99.90
75262;DHT22;63859;51.064;4.580;2023-07-29T09:50:26;22.20;99.90
75262;DHT22;63859;51.064;4.580;2023-07-29T09:52:53;22.10;99.90
75262;DHT22;63859;51.064;4.580;2023-07-29T09:55:23;22.30;99.90
75262;DHT22;63859;51.064;4.580;2023-07-29T09:57:53;22.30;99.90
75262;DHT22;63859;51.064;4.580;2023-07-29T10:00:19;22.30;99.90
75262;DHT22;63859;51.064;4.580;2023-07-29T10:02:45;22.40;99.90
75262;DHT22;63859;51.064;4.580;2023-07-29T10:05:11;22.40;99.90
75262;DHT22;63859;51.064;4.580;2023-07-29T10:07:38;22.30;99.90
75262;DHT22;63859;51.064;4.580;2023-07-29T10:10:05;22.30;99.90
75262;DHT22;63859;51.064;4.580;2023-07-29T10:12:32;22.30;99.90
75262;DHT22;63859;51.064;4.580;2023-07-29T10:15:00;22.40;99.90
75262;DHT22;63859;51.064;4.580;2023-07-29T10:17:26;22.50;99.90
75262;DHT22;63859;51.064;4.580;2023-07-29T10:19:54;22.50;99.90
75262;DHT22;63859;51.064;4.580;2023-07-29T10:22:21;22.50;99.90
75262;DHT22;63859;51.064;4.580;2023-07-29T10:24:50;22.50;99.90
75262;DHT22;63859;51.064;4.580;2023-07-29T10:27:18;22.50;99.90
75262;DHT22;63859;51.064;4.580;2023-07-29T10:29:45;22.70;99.90
75262;DHT22;63859;51.064;4.580;2023-07-29T10:32:11;22.90;99.90
75262;DHT22;63859;51.064;4.580;2023-07-29T10:34:37;23.10;99.90
75262;DHT22;63859;51.064;4.580;2023-07-29T10:37:04;23.30;99.90
75262;DHT22;63859;51.064;4.580;2023-07-29T10:39:40;23.40;99.90
75262;DHT22;63859;51.064;4.580;2023-07-29T10:42:06;23.50;99.90
75262;DHT22;63859;51.064;4.580;2023-07-29T10:47:25;23.70;99.90
75262;DHT22;63859;51.064;4.580;2023-07-29T10:49:57;23.70;99.90
75262;DHT22;63859;51.064;4.580;2023-07-29T10:54:56;23.50;99.90
75262;DHT22;63859;51.064;4.580;2023-07-29T10:57:35;23.40;99.90
75262;DHT22;63859;51.064;4.580;2023-07-29T11:00:01;23.30;99.90
75262;DHT22;63859;51.064;4.580;2023-07-29T11:02:38;23.40;99.90
75262;DHT22;63859;51.064;4.580;2023-07-29T11:05:15;23.50;99.90
75262;DHT22;63859;51.064;4.580;2023-07-29T11:07:48;23.60;99.90
75262;DHT22;63859;51.064;4.580;2023-07-29T11:10:14;23.70;99.90
75262;DHT22;63859;51.064;4.580;2023-07-29T11:17:42;23.70;99.90
75262;DHT22;63859;51.064;4.580;2023-07-29T11:20:08;23.50;99.90
75262;DHT22;63859;51.064;4.580;2023-07-29T11:22:35;23.30;99.90
75262;DHT22;63859;51.064;4.580;2023-07-29T11:25:01;23.10;99.90
75262;DHT22;63859;51.064;4.580;2023-07-29T11:27:27;22.80;99.90
75262;DHT22;63859;51.064;4.580;2023-07-29T11:30:00;22.70;99.90
75262;DHT22;63859;51.064;4.580;2023-07-29T11:32:27;22.60;99.90
75262;DHT22;63859;51.064;4.580;2023-07-29T11:34:53;22.50;99.90
75262;DHT22;63859;51.064;4.580;2023-07-29T11:37:19;22.30;99.90
75262;DHT22;63859;51.064;4.580;2023-07-29T11:39:46;22.10;99.90
75262;DHT22;63859;51.064;4.580;2023-07-29T11:42:13;21.80;99.90
75262;DHT22;63859;51.064;4.580;2023-07-29T11:44:39;21.60;99.90
75262;DHT22;63859;51.064;4.580;2023-07-29T11:47:08;21.50;99.90
75262;DHT22;63859;51.064;4.580;2023-07-29T11:49:35;21.30;99.90
75262;DHT22;63859;51.064;4.580;2023-07-29T11:52:02;21.10;99.90
75262;DHT22;63859;51.064;4.580;2023-07-29T11:54:28;21.00;99.90
75262;DHT22;63859;51.064;4.580;2023-07-29T11:56:55;21.10;99.90
75262;DHT22;63859;51.064;4.580;2023-07-29T11:59:21;21.60;99.90
75262;DHT22;63859;51.064;4.580;2023-07-29T12:01:47;22.00;99.90
75262;DHT22;63859;51.064;4.580;2023-07-29T12:04:13;22.40;99.90
75262;DHT22;63859;51.064;4.580;2023-07-29T12:06:39;22.60;99.90
75262;DHT22;63859;51.064;4.580;2023-07-29T12:09:06;22.90;99.90
75262;DHT22;63859;51.064;4.580;2023-07-29T12:11:33;22.80;99.90
75262;DHT22;63859;51.064;4.580;2023-07-29T12:14:00;22.60;99.90
75262;DHT22;63859;51.064;4.580;2023-07-29T12:16:25;22.40;99.90
75262;DHT22;63859;51.064;4.580;2023-07-29T12:18:51;22.20;99.90
75262;DHT22;63859;51.064;4.580;2023-07-29T12:21:18;22.00;99.90
75262;DHT22;63859;51.064;4.580;2023-07-29T12:23:44;21.80;99.90
75262;DHT22;63859;51.064;4.580;2023-07-29T12:26:10;21.60;99.90
75262;DHT22;63859;51.064;4.580;2023-07-29T12:28:35;21.50;99.90
75262;DHT22;63859;51.064;4.580;2023-07-29T12:31:01;21.80;99.90
75262;DHT22;63859;51.064;4.580;2023-07-29T12:33:34;21.90;99.90
75262;DHT22;63859;51.064;4.580;2023-07-29T12:36:01;22.20;99.90
75262;DHT22;63859;51.064;4.580;2023-07-29T12:38:28;22.30;99.90
75262;DHT22;63859;51.064;4.580;2023-07-29T12:40:54;22.50;99.90
75262;DHT22;63859;51.064;4.580;2023-07-29T12:43:19;22.50;99.90
75262;DHT22;63859;51.064;4.580;2023-07-29T12:45:45;22.50;99.90
75262;DHT22;63859;51.064;4.580;2023-07-29T12:48:11;22.70;99.90
75262;DHT22;63859;51.064;4.580;2023-07-29T12:50:37;22.70;99.90
75262;DHT22;63859;51.064;4.580;2023-07-29T12:53:06;22.90;99.90
75262;DHT22;63859;51.064;4.580;2023-07-29T12:55:32;23.20;99.90
75262;DHT22;63859;51.064;4.580;2023-07-29T12:57:57;23.10;99.90
75262;DHT22;63859;51.064;4.580;2023-07-29T13:00:24;22.80;99.90
75262;DHT22;63859;51.064;4.580;2023-07-29T13:02:50;22.60;99.90
75262;DHT22;63859;51.064;4.580;2023-07-29T13:05:16;22.60;99.90
75262;DHT22;63859;51.064;4.580;2023-07-29T13:07:42;22.70;99.90
75262;DHT22;63859;51.064;4.580;2023-07-29T13:10:09;22.90;99.90
75262;DHT22;63859;51.064;4.580;2023-07-29T13:12:35;23.20;99.90
75262;DHT22;63859;51.064;4.580;2023-07-29T13:15:00;23.90;99.90
75262;DHT22;63859;51.064;4.580;2023-07-29T13:17:26;24.10;99.90
75262;DHT22;63859;51.064;4.580;2023-07-29T13:19:52;24.10;99.90
75262;DHT22;63859;51.064;4.580;2023-07-29T13:22:19;24.50;99.90
75262;DHT22;63859;51.064;4.580;2023-07-29T13:24:45;24.80;99.90
75262;DHT22;63859;51.064;4.580;2023-07-29T13:27:11;25.10;99.90
75262;DHT22;63859;51.064;4.580;2023-07-29T13:29:36;25.20;99.90
75262;DHT22;63859;51.064;4.580;2023-07-29T13:32:02;25.10;99.90
75262;DHT22;63859;51.064;4.580;2023-07-29T13:34:28;25.10;99.90
75262;DHT22;63859;51.064;4.580;2023-07-29T13:36:53;25.10;99.90
75262;DHT22;63859;51.064;4.580;2023-07-29T13:39:19;25.10;99.90
75262;DHT22;63859;51.064;4.580;2023-07-29T13:41:45;24.60;99.90
75262;DHT22;63859;51.064;4.580;2023-07-29T13:44:10;24.40;99.90
75262;DHT22;63859;51.064;4.580;2023-07-29T13:46:36;24.20;99.90
75262;DHT22;63859;51.064;4.580;2023-07-29T13:49:01;24.30;99.90
75262;DHT22;63859;51.064;4.580;2023-07-29T13:51:28;24.10;99.90
75262;DHT22;63859;51.064;4.580;2023-07-29T13:53:54;24.50;99.90
75262;DHT22;63859;51.064;4.580;2023-07-29T13:56:21;24.80;99.90
75262;DHT22;63859;51.064;4.580;2023-07-29T13:58:47;24.70;99.90
75262;DHT22;63859;51.064;4.580;2023-07-29T14:01:13;24.70;99.90
75262;DHT22;63859;51.064;4.580;2023-07-29T14:03:38;24.60;99.90
75262;DHT22;63859;51.064;4.580;2023-07-29T14:06:04;24.50;99.90
75262;DHT22;63859;51.064;4.580;2023-07-29T14:08:30;24.40;99.90
75262;DHT22;63859;51.064;4.580;2023-07-29T14:10:55;24.50;99.90
75262;DHT22;63859;51.064;4.580;2023-07-29T14:13:21;24.90;99.90
75262;DHT22;63859;51.064;4.580;2023-07-29T14:15:47;25.10;99.90
75262;DHT22;63859;51.064;4.580;2023-07-29T14:18:12;25.40;99.90
75262;DHT22;63859;51.064;4.580;2023-07-29T14:20:38;25.40;99.90
75262;DHT22;63859;51.064;4.580;2023-07-29T14:23:04;25.10;99.90
75262;DHT22;63859;51.064;4.580;2023-07-29T14:25:30;24.60;99.90
75262;DHT22;63859;51.064;4.580;2023-07-29T14:27:55;24.30;99.90
75262;DHT22;63859;51.064;4.580;2023-07-29T14:30:21;24.10;99.90
75262;DHT22;63859;51.064;4.580;2023-07-29T14:32:47;24.00;99.90
75262;DHT22;63859;51.064;4.580;2023-07-29T14:35:12;24.00;99.90
75262;DHT22;63859;51.064;4.580;2023-07-29T14:37:38;24.00;99.90
75262;DHT22;63859;51.064;4.580;2023-07-29T14:40:04;23.90;99.90
75262;DHT22;63859;51.064;4.580;2023-07-29T14:42:30;23.80;99.90
75262;DHT22;63859;51.064;4.580;2023-07-29T14:44:56;23.70;99.90
75262;DHT22;63859;51.064;4.580;2023-07-29T14:47:21;23.70;99.90
75262;DHT22;63859;51.064;4.580;2023-07-29T14:49:47;23.60;99.90
75262;DHT22;63859;51.064;4.580;2023-07-29T14:52:13;23.50;99.90
75262;DHT22;63859;51.064;4.580;2023-07-29T14:54:38;23.40;99.90
75262;DHT22;63859;51.064;4.580;2023-07-29T14:57:06;23.20;99.90
75262;DHT22;63859;51.064;4.580;2023-07-29T14:59:32;23.10;99.90
75262;DHT22;63859;51.064;4.580;2023-07-29T15:01:57;23.00;99.90
75262;DHT22;63859;51.064;4.580;2023-07-29T15:04:24;22.90;99.90
75262;DHT22;63859;51.064;4.580;2023-07-29T15:06:49;22.50;99.90
75262;DHT22;63859;51.064;4.580;2023-07-29T15:09:15;22.60;99.90
75262;DHT22;63859;51.064;4.580;2023-07-29T15:11:41;23.00;99.90
75262;DHT22;63859;51.064;4.580;2023-07-29T15:14:06;23.20;99.90
75262;DHT22;63859;51.064;4.580;2023-07-29T15:16:32;23.00;99.90
75262;DHT22;63859;51.064;4.580;2023-07-29T15:18:59;23.20;99.90
75262;DHT22;63859;51.064;4.580;2023-07-29T15:21:25;23.10;99.90
75262;DHT22;63859;51.064;4.580;2023-07-29T15:23:51;22.80;99.90
75262;DHT22;63859;51.064;4.580;2023-07-29T15:26:16;22.60;99.90
75262;DHT22;63859;51.064;4.580;2023-07-29T15:28:42;23.00;99.90
75262;DHT22;63859;51.064;4.580;2023-07-29T15:31:07;23.10;99.90
75262;DHT22;63859;51.064;4.580;2023-07-29T15:33:33;22.90;99.90
75262;DHT22;63859;51.064;4.580;2023-07-29T15:36:00;22.60;99.90
75262;DHT22;63859;51.064;4.580;2023-07-29T15:38:25;22.30;99.90
75262;DHT22;63859;51.064;4.580;2023-07-29T15:40:51;22.00;99.90